Confederate, Kentucky
Current Conditions -  °F | °C
As of 11:55 AM on Thursday 30 Oct 2014 (Local Time) from K5M9 Reporting Station
Clear Clear  
Wind Chill: 55°   Ceiling: Unl
Heat Index: 55°   Visibility: 10mi
Dew Point: 38°   Wind: 3mph
Humidity: 53%   Direction: 150°SSE
Pressure: 30.15"   Gusts: NA
Location:  37.0504°N, 88.0159°W
Report Text: K5M9 301655Z AUTO 15003KT 10SM CLR 13/03 A3015 RMK AO2 T01280034
Loading
Personal Weather Stations






























Interactive Weather Map
Tropical Storm Tracking
New forecast layout! Learn more

10-Day Weather Forecast

Advertisements
Track Severe Weather on mobile